Time;durP1;ratioP1;P1;durP2;ratioP2;P2;SDS_P1;SDS_P2;PMS_P1;PMS_P2;Temp;Humidity;BMP_temperature;BMP_pressure;BME280_temperature;BME280_humidity;BME280_pressure;Samples;Min_cycle;Max_cycle;Signal;HPM_P1;HPM_P2
2022/10/30 00:00:41;;;;;;;;;;;23.30;46.20;;;;;;474821;251;1246;-53
2022/10/30 00:02:42;;;;;;;;;;;23.30;46.20;;;;;;474687;251;1344;-53
2022/10/30 00:04:43;;;;;;;;;;;23.30;46.20;;;;;;475111;251;1300;-53
2022/10/30 00:06:45;;;;;;;;;;;23.30;46.20;;;;;;474689;251;1320;-53
2022/10/30 00:08:46;;;;;;;;;;;23.30;46.20;;;;;;474878;251;1279;-53
2022/10/30 00:10:49;;;;;;;;;;;23.30;46.20;;;;;;474723;251;1284;-52
2022/10/30 00:12:50;;;;;;;;;;;23.30;46.20;;;;;;474692;251;1214;-52
2022/10/30 00:14:51;;;;;;;;;;;23.30;46.20;;;;;;474723;251;2162;-53
2022/10/30 00:16:52;;;;;;;;;;;23.30;46.20;;;;;;474687;251;1283;-53
2022/10/30 00:18:54;;;;;;;;;;;23.30;46.20;;;;;;474749;251;1236;-53
2022/10/30 00:20:55;;;;;;;;;;;23.30;46.30;;;;;;474688;251;1208;-53
2022/10/30 00:22:56;;;;;;;;;;;23.30;46.20;;;;;;474874;251;1324;-53
2022/10/30 00:24:58;;;;;;;;;;;23.30;46.20;;;;;;474789;251;1548;-53
2022/10/30 00:26:59;;;;;;;;;;;23.30;46.30;;;;;;474847;251;1304;-52
2022/10/30 00:29:00;;;;;;;;;;;23.30;46.40;;;;;;474648;251;2508;-53
2022/10/30 00:31:02;;;;;;;;;;;23.30;46.30;;;;;;474652;251;1274;-53
2022/10/30 00:33:03;;;;;;;;;;;23.30;46.30;;;;;;474898;251;1280;-53
2022/10/30 00:35:04;;;;;;;;;;;23.30;46.30;;;;;;474954;251;2193;-53
2022/10/30 00:37:06;;;;;;;;;;;23.30;46.30;;;;;;474892;251;1342;-53
2022/10/30 00:39:07;;;;;;;;;;;23.30;46.30;;;;;;474929;251;1195;-52
2022/10/30 00:41:08;;;;;;;;;;;23.30;46.20;;;;;;474703;251;1694;-53
2022/10/30 00:43:10;;;;;;;;;;;23.30;46.30;;;;;;474662;251;1217;-52
2022/10/30 00:45:11;;;;;;;;;;;23.30;46.30;;;;;;474647;251;1537;-53
2022/10/30 00:47:12;;;;;;;;;;;23.30;46.40;;;;;;474934;251;1432;-53
2022/10/30 00:49:14;;;;;;;;;;;23.30;46.30;;;;;;474862;251;1241;-53
2022/10/30 00:51:15;;;;;;;;;;;23.30;46.40;;;;;;474638;251;1304;-53
2022/10/30 00:53:17;;;;;;;;;;;23.30;46.30;;;;;;474765;251;1628;-53
2022/10/30 00:55:18;;;;;;;;;;;23.30;46.30;;;;;;474814;251;2196;-53
2022/10/30 00:57:19;;;;;;;;;;;23.30;46.30;;;;;;474837;251;1436;-53
2022/10/30 00:59:21;;;;;;;;;;;23.30;46.40;;;;;;474701;251;1261;-53
2022/10/30 01:01:22;;;;;;;;;;;23.30;46.30;;;;;;475107;251;1270;-53
2022/10/30 01:03:23;;;;;;;;;;;23.30;46.30;;;;;;475113;251;1247;-52
2022/10/30 01:05:24;;;;;;;;;;;23.30;46.40;;;;;;475086;251;1197;-53
2022/10/30 01:07:26;;;;;;;;;;;23.30;46.40;;;;;;475007;251;1254;-53
2022/10/30 01:09:27;;;;;;;;;;;23.30;46.40;;;;;;475084;251;1372;-53
2022/10/30 01:11:28;;;;;;;;;;;23.30;46.30;;;;;;474543;251;1688;-53
2022/10/30 01:13:30;;;;;;;;;;;23.30;46.40;;;;;;474878;251;1298;-53
2022/10/30 01:15:31;;;;;;;;;;;23.30;46.40;;;;;;474943;251;2200;-53
2022/10/30 01:17:32;;;;;;;;;;;23.30;46.40;;;;;;474552;251;1660;-52
2022/10/30 01:19:34;;;;;;;;;;;23.30;46.40;;;;;;474754;251;1198;-53
2022/10/30 01:21:37;;;;;;;;;;;23.30;46.40;;;;;;474611;251;1401;-53
2022/10/30 01:23:36;;;;;;;;;;;23.30;46.40;;;;;;474761;251;2102;-53
2022/10/30 01:25:38;;;;;;;;;;;23.30;46.40;;;;;;474836;251;1215;-53
2022/10/30 01:27:39;;;;;;;;;;;23.30;46.30;;;;;;474571;251;1969;-52
2022/10/30 01:29:40;;;;;;;;;;;23.30;46.40;;;;;;474596;251;1249;-53
2022/10/30 01:31:42;;;;;;;;;;;23.30;46.40;;;;;;474958;251;1300;-53
2022/10/30 01:33:43;;;;;;;;;;;23.30;46.30;;;;;;474573;251;1372;-53
2022/10/30 01:35:44;;;;;;;;;;;23.30;46.30;;;;;;474610;251;2209;-53
2022/10/30 01:37:46;;;;;;;;;;;23.30;46.30;;;;;;474601;251;1307;-53
2022/10/30 01:39:47;;;;;;;;;;;23.30;46.40;;;;;;474630;251;1274;-52
2022/10/30 01:41:48;;;;;;;;;;;23.30;46.40;;;;;;474685;251;1692;-53
2022/10/30 01:43:50;;;;;;;;;;;23.30;46.40;;;;;;475067;251;1222;-53
2022/10/30 01:45:51;;;;;;;;;;;23.30;46.40;;;;;;474802;251;1283;-53
2022/10/30 01:47:52;;;;;;;;;;;23.30;46.40;;;;;;474661;251;1253;-53
2022/10/30 01:49:54;;;;;;;;;;;23.30;46.50;;;;;;474668;251;1287;-53
2022/10/30 01:51:55;;;;;;;;;;;23.30;46.40;;;;;;475055;251;1182;-53
2022/10/30 01:53:56;;;;;;;;;;;23.30;46.40;;;;;;474655;251;1350;-53
2022/10/30 01:55:57;;;;;;;;;;;23.30;46.40;;;;;;474942;251;2122;-53
2022/10/30 01:57:59;;;;;;;;;;;23.30;46.40;;;;;;474625;251;1277;-53
2022/10/30 02:00:00;;;;;;;;;;;23.30;46.50;;;;;;474651;251;1275;-53
2022/10/30 02:02:01;;;;;;;;;;;23.30;46.40;;;;;;474644;251;1369;-53
2022/10/30 02:04:03;;;;;;;;;;;23.30;46.40;;;;;;474840;251;1241;-53
2022/10/30 02:06:04;;;;;;;;;;;23.30;46.50;;;;;;475065;251;1307;-52
2022/10/30 02:08:05;;;;;;;;;;;23.30;46.50;;;;;;474849;251;1344;-53
2022/10/30 02:10:07;;;;;;;;;;;23.30;46.50;;;;;;474649;251;1275;-53
2022/10/30 02:12:08;;;;;;;;;;;23.30;46.50;;;;;;474741;251;1203;-53
2022/10/30 02:14:09;;;;;;;;;;;23.30;46.40;;;;;;475065;251;1307;-53
2022/10/30 02:16:11;;;;;;;;;;;23.30;46.50;;;;;;474648;251;2197;-53
2022/10/30 02:18:12;;;;;;;;;;;23.30;46.50;;;;;;474669;251;1582;-53
2022/10/30 02:20:14;;;;;;;;;;;23.30;46.40;;;;;;474793;251;1220;-53
2022/10/30 02:22:16;;;;;;;;;;;23.30;46.50;;;;;;474931;251;1299;-53
2022/10/30 02:24:17;;;;;;;;;;;23.30;46.50;;;;;;475055;251;2327;-53
2022/10/30 02:26:18;;;;;;;;;;;23.30;46.40;;;;;;474980;251;1248;-53
2022/10/30 02:28:19;;;;;;;;;;;23.30;46.50;;;;;;475091;251;1225;-53
2022/10/30 02:30:21;;;;;;;;;;;23.30;46.50;;;;;;475053;251;1284;-52
2022/10/30 02:32:22;;;;;;;;;;;23.30;46.50;;;;;;474979;251;1248;-53
2022/10/30 02:34:23;;;;;;;;;;;23.30;46.50;;;;;;474831;251;2161;-53
2022/10/30 02:36:25;;;;;;;;;;;23.30;46.50;;;;;;474882;251;1209;-53
2022/10/30 02:38:26;;;;;;;;;;;23.30;46.50;;;;;;474607;251;1344;-53
2022/10/30 02:40:27;;;;;;;;;;;23.30;46.40;;;;;;474644;251;1462;-53
2022/10/30 02:42:29;;;;;;;;;;;23.30;46.50;;;;;;474730;251;1350;-53
2022/10/30 02:44:30;;;;;;;;;;;23.30;46.50;;;;;;474635;251;1408;-53
2022/10/30 02:46:31;;;;;;;;;;;23.30;46.50;;;;;;474642;251;1286;-53
2022/10/30 02:48:33;;;;;;;;;;;23.30;46.50;;;;;;475076;251;1359;-53
2022/10/30 02:50:34;;;;;;;;;;;23.30;46.50;;;;;;475098;251;1389;-53
2022/10/30 02:52:35;;;;;;;;;;;23.30;46.60;;;;;;474617;251;1349;-53
2022/10/30 02:54:37;;;;;;;;;;;23.30;46.60;;;;;;474670;251;2154;-53
2022/10/30 02:56:38;;;;;;;;;;;23.30;46.50;;;;;;474975;251;1295;-53
2022/10/30 02:58:39;;;;;;;;;;;23.30;46.50;;;;;;475108;251;1247;-53
2022/10/30 03:00:41;;;;;;;;;;;23.30;46.50;;;;;;475101;251;1192;-53
2022/10/30 03:02:42;;;;;;;;;;;23.30;46.60;;;;;;474811;251;1254;-53
2022/10/30 03:04:43;;;;;;;;;;;23.30;46.60;;;;;;474674;251;1354;-53
2022/10/30 03:06:44;;;;;;;;;;;23.30;46.60;;;;;;475070;251;1355;-52
2022/10/30 03:08:46;;;;;;;;;;;23.30;46.70;;;;;;475095;251;1205;-53
2022/10/30 03:10:47;;;;;;;;;;;23.20;46.50;;;;;;474698;251;1258;-53
2022/10/30 03:12:48;;;;;;;;;;;23.20;46.60;;;;;;474660;251;1233;-53
2022/10/30 03:14:50;;;;;;;;;;;23.30;46.70;;;;;;474669;251;2200;-53
2022/10/30 03:16:52;;;;;;;;;;;23.30;46.60;;;;;;474701;251;1223;-53
2022/10/30 03:18:53;;;;;;;;;;;23.30;46.50;;;;;;474821;251;1348;-53
2022/10/30 03:20:54;;;;;;;;;;;23.30;46.60;;;;;;475111;251;1257;-53
2022/10/30 03:22:56;;;;;;;;;;;23.30;46.60;;;;;;475111;251;1178;-53
2022/10/30 03:24:57;;;;;;;;;;;23.30;46.60;;;;;;475001;251;1314;-53
2022/10/30 03:26:58;;;;;;;;;;;23.30;46.60;;;;;;474902;251;1220;-53
2022/10/30 03:29:00;;;;;;;;;;;23.30;46.60;;;;;;475081;251;1228;-52
2022/10/30 03:31:01;;;;;;;;;;;23.30;46.60;;;;;;474787;251;1230;-52
2022/10/30 03:33:02;;;;;;;;;;;23.30;46.60;;;;;;474780;251;1281;-53
2022/10/30 03:35:03;;;;;;;;;;;23.30;46.60;;;;;;474934;251;2165;-53
2022/10/30 03:37:05;;;;;;;;;;;23.30;46.60;;;;;;474679;251;1228;-53
2022/10/30 03:39:06;;;;;;;;;;;23.30;46.70;;;;;;474679;251;1360;-52
2022/10/30 03:41:07;;;;;;;;;;;23.30;46.70;;;;;;474768;251;1295;-53
2022/10/30 03:43:09;;;;;;;;;;;23.30;46.70;;;;;;474690;251;1244;-53
2022/10/30 03:45:10;;;;;;;;;;;23.30;46.70;;;;;;474662;251;2339;-53
2022/10/30 03:47:11;;;;;;;;;;;23.30;46.60;;;;;;474672;251;1225;-53
2022/10/30 03:49:13;;;;;;;;;;;23.30;46.60;;;;;;474668;251;1178;-52
2022/10/30 03:51:14;;;;;;;;;;;23.30;46.70;;;;;;475127;251;1256;-53
2022/10/30 03:53:15;;;;;;;;;;;23.30;46.70;;;;;;474663;251;1200;-53
2022/10/30 03:55:17;;;;;;;;;;;23.30;46.70;;;;;;475109;251;2222;-53
2022/10/30 03:57:18;;;;;;;;;;;23.30;46.70;;;;;;474965;251;1275;-53
2022/10/30 03:59:19;;;;;;;;;;;23.20;46.60;;;;;;474837;251;1267;-52
2022/10/30 04:01:21;;;;;;;;;;;23.30;46.70;;;;;;474827;251;1734;-53
2022/10/30 04:03:22;;;;;;;;;;;23.30;46.70;;;;;;474824;251;1369;-52
2022/10/30 04:05:23;;;;;;;;;;;23.30;46.70;;;;;;474659;251;1351;-53
2022/10/30 04:07:25;;;;;;;;;;;23.30;46.70;;;;;;474652;251;1214;-53
2022/10/30 04:09:26;;;;;;;;;;;23.30;46.70;;;;;;474702;251;1248;-53
2022/10/30 04:11:27;;;;;;;;;;;23.30;46.70;;;;;;474895;251;1375;-53
2022/10/30 04:13:28;;;;;;;;;;;23.30;46.70;;;;;;474735;251;1325;-53
2022/10/30 04:15:30;;;;;;;;;;;23.30;46.70;;;;;;474826;251;2193;-53
2022/10/30 04:17:31;;;;;;;;;;;23.30;46.70;;;;;;474954;251;1297;-53
2022/10/30 04:19:33;;;;;;;;;;;23.30;46.70;;;;;;475091;251;1688;-53
2022/10/30 04:21:34;;;;;;;;;;;23.30;46.70;;;;;;475111;251;1241;-53
2022/10/30 04:23:35;;;;;;;;;;;23.30;46.70;;;;;;475002;251;1285;-53
2022/10/30 04:25:36;;;;;;;;;;;23.20;46.70;;;;;;475128;251;1187;-53
2022/10/30 04:27:38;;;;;;;;;;;23.30;46.80;;;;;;474694;251;1214;-53
2022/10/30 04:29:40;;;;;;;;;;;23.30;46.70;;;;;;474687;251;1246;-53
2022/10/30 04:31:40;;;;;;;;;;;23.30;46.70;;;;;;474617;251;2166;-53
2022/10/30 04:33:42;;;;;;;;;;;23.30;46.70;;;;;;474689;251;1234;-53
2022/10/30 04:35:43;;;;;;;;;;;23.30;46.70;;;;;;474789;251;2181;-52
2022/10/30 04:37:44;;;;;;;;;;;23.20;46.60;;;;;;475109;251;1182;-53
2022/10/30 04:39:47;;;;;;;;;;;23.20;46.70;;;;;;474964;251;1226;-53
2022/10/30 04:41:47;;;;;;;;;;;23.30;46.70;;;;;;474848;251;2165;-53
2022/10/30 04:43:48;;;;;;;;;;;23.30;46.70;;;;;;474789;251;1222;-53
2022/10/30 04:45:50;;;;;;;;;;;23.30;46.80;;;;;;474670;251;1440;-52
2022/10/30 04:47:51;;;;;;;;;;;23.30;46.70;;;;;;474902;251;1219;-53
2022/10/30 04:49:52;;;;;;;;;;;23.30;46.80;;;;;;475118;251;1185;-53
2022/10/30 04:51:54;;;;;;;;;;;23.30;46.70;;;;;;474946;251;1201;-53
2022/10/30 04:53:55;;;;;;;;;;;23.30;46.70;;;;;;474685;251;1201;-52
2022/10/30 04:55:56;;;;;;;;;;;23.30;46.70;;;;;;475103;251;2165;-53
2022/10/30 04:57:58;;;;;;;;;;;23.30;46.70;;;;;;474995;251;1222;-53
2022/10/30 04:59:59;;;;;;;;;;;23.30;46.80;;;;;;475072;251;1307;-53
2022/10/30 05:02:00;;;;;;;;;;;23.30;46.70;;;;;;475100;251;1190;-53
2022/10/30 05:04:01;;;;;;;;;;;23.30;46.70;;;;;;475106;251;1295;-52
2022/10/30 05:06:03;;;;;;;;;;;23.30;46.70;;;;;;475071;251;1250;-53
2022/10/30 05:08:04;;;;;;;;;;;23.20;46.70;;;;;;474642;251;1241;-53
2022/10/30 05:10:05;;;;;;;;;;;23.20;46.70;;;;;;474657;251;1332;-53
2022/10/30 05:12:07;;;;;;;;;;;23.20;46.70;;;;;;474877;251;1355;-53
2022/10/30 05:14:08;;;;;;;;;;;23.30;46.80;;;;;;474636;251;1346;-52
2022/10/30 05:16:09;;;;;;;;;;;23.30;46.80;;;;;;474799;251;2162;-53
2022/10/30 05:18:11;;;;;;;;;;;23.30;46.70;;;;;;474634;251;1272;-53
2022/10/30 05:20:12;;;;;;;;;;;23.30;46.70;;;;;;474637;251;1247;-53
2022/10/30 05:22:13;;;;;;;;;;;23.30;46.70;;;;;;475020;251;1256;-53
2022/10/30 05:24:15;;;;;;;;;;;23.30;46.80;;;;;;475063;251;1299;-53
2022/10/30 05:26:16;;;;;;;;;;;23.30;46.70;;;;;;474786;251;1546;-52
2022/10/30 05:28:17;;;;;;;;;;;23.30;46.70;;;;;;474622;251;1940;-53
2022/10/30 05:30:19;;;;;;;;;;;23.30;46.80;;;;;;474924;251;1379;-53
2022/10/30 05:32:20;;;;;;;;;;;23.30;46.70;;;;;;474647;251;1311;-52
2022/10/30 05:34:21;;;;;;;;;;;23.30;46.70;;;;;;474920;251;1227;-53
2022/10/30 05:36:23;;;;;;;;;;;23.30;46.70;;;;;;474668;251;2162;-53
2022/10/30 05:38:24;;;;;;;;;;;23.20;46.70;;;;;;474950;251;1217;-53
2022/10/30 05:40:25;;;;;;;;;;;23.30;46.80;;;;;;474961;251;1216;-53
2022/10/30 05:42:27;;;;;;;;;;;23.20;46.80;;;;;;474673;251;1314;-53
2022/10/30 05:44:28;;;;;;;;;;;23.30;46.70;;;;;;474760;251;1259;-52
2022/10/30 05:46:29;;;;;;;;;;;23.20;46.70;;;;;;474669;251;1303;-53
2022/10/30 05:48:31;;;;;;;;;;;23.20;46.80;;;;;;474760;251;2252;-52
2022/10/30 05:50:32;;;;;;;;;;;23.20;46.70;;;;;;474911;251;1307;-52
2022/10/30 05:52:33;;;;;;;;;;;23.30;46.70;;;;;;474791;251;1248;-52
2022/10/30 05:54:35;;;;;;;;;;;23.30;46.70;;;;;;474749;251;1211;-53
2022/10/30 05:56:36;;;;;;;;;;;23.30;46.70;;;;;;475072;251;2160;-53
2022/10/30 05:58:37;;;;;;;;;;;23.30;46.70;;;;;;474942;251;1200;-53
2022/10/30 06:00:39;;;;;;;;;;;23.30;46.80;;;;;;475063;251;1288;-53
2022/10/30 06:02:40;;;;;;;;;;;23.30;46.80;;;;;;474820;251;1341;-53
2022/10/30 06:04:41;;;;;;;;;;;23.30;46.70;;;;;;474967;251;1388;-52
2022/10/30 06:06:43;;;;;;;;;;;23.30;46.70;;;;;;474927;251;1193;-53
2022/10/30 06:08:44;;;;;;;;;;;23.30;46.80;;;;;;474920;251;1656;-53
2022/10/30 06:10:45;;;;;;;;;;;23.20;46.70;;;;;;475054;251;1256;-53
2022/10/30 06:12:47;;;;;;;;;;;23.20;46.80;;;;;;474830;251;1313;-53
2022/10/30 06:14:48;;;;;;;;;;;23.30;46.80;;;;;;474653;251;1365;-53
2022/10/30 06:16:49;;;;;;;;;;;23.30;46.70;;;;;;474608;251;2157;-53
2022/10/30 06:18:51;;;;;;;;;;;23.30;46.70;;;;;;475014;251;1341;-53
2022/10/30 06:20:52;;;;;;;;;;;23.30;46.70;;;;;;474675;251;1310;-53
2022/10/30 06:22:54;;;;;;;;;;;23.20;46.70;;;;;;474598;251;1315;-53
2022/10/30 06:24:55;;;;;;;;;;;23.30;46.80;;;;;;474629;251;1525;-52
2022/10/30 06:26:56;;;;;;;;;;;23.30;46.80;;;;;;474960;251;1238;-53
2022/10/30 06:28:57;;;;;;;;;;;23.30;46.70;;;;;;474678;251;1659;-53
2022/10/30 06:30:59;;;;;;;;;;;23.30;46.70;;;;;;475078;251;1243;-53
2022/10/30 06:33:00;;;;;;;;;;;23.30;46.70;;;;;;475060;251;1283;-53
2022/10/30 06:35:02;;;;;;;;;;;23.30;46.70;;;;;;474809;251;1403;-53
2022/10/30 06:37:03;;;;;;;;;;;23.30;46.70;;;;;;474608;251;2201;-53
2022/10/30 06:39:04;;;;;;;;;;;23.30;46.80;;;;;;474638;251;1210;-52
2022/10/30 06:41:05;;;;;;;;;;;23.30;46.80;;;;;;474620;251;1220;-53
2022/10/30 06:43:07;;;;;;;;;;;23.30;46.80;;;;;;474903;251;1272;-53
2022/10/30 06:45:08;;;;;;;;;;;23.30;46.80;;;;;;474701;251;1240;-53
2022/10/30 06:47:09;;;;;;;;;;;23.30;46.80;;;;;;474620;251;1301;-53
2022/10/30 06:49:11;;;;;;;;;;;23.30;46.80;;;;;;474858;251;1299;-53
2022/10/30 06:51:12;;;;;;;;;;;23.30;46.80;;;;;;474606;251;1284;-53
2022/10/30 06:53:14;;;;;;;;;;;23.30;46.70;;;;;;474667;251;1227;-53
2022/10/30 06:55:15;;;;;;;;;;;23.30;46.70;;;;;;474610;251;1319;-53
2022/10/30 06:57:16;;;;;;;;;;;23.30;46.70;;;;;;474696;251;2201;-53
2022/10/30 06:59:18;;;;;;;;;;;23.30;46.70;;;;;;474869;251;1662;-53
2022/10/30 07:01:19;;;;;;;;;;;23.30;46.80;;;;;;474686;251;1291;-52
2022/10/30 07:03:20;;;;;;;;;;;23.20;46.70;;;;;;474605;251;1347;-53
2022/10/30 07:05:22;;;;;;;;;;;23.30;46.80;;;;;;474721;251;1285;-53
2022/10/30 07:07:23;;;;;;;;;;;23.30;46.80;;;;;;474626;251;1250;-52
2022/10/30 07:09:24;;;;;;;;;;;23.30;46.80;;;;;;474624;251;1241;-53
2022/10/30 07:11:26;;;;;;;;;;;23.30;46.80;;;;;;474655;251;1228;-53
2022/10/30 07:13:27;;;;;;;;;;;23.30;46.70;;;;;;474636;251;1393;-53
2022/10/30 07:15:28;;;;;;;;;;;23.30;46.80;;;;;;474609;251;1278;-53
2022/10/30 07:17:30;;;;;;;;;;;23.30;46.80;;;;;;474686;251;2156;-53
2022/10/30 07:19:31;;;;;;;;;;;23.30;46.80;;;;;;474946;251;1342;-53
2022/10/30 07:21:32;;;;;;;;;;;23.30;46.80;;;;;;474867;251;1398;-53
2022/10/30 07:23:34;;;;;;;;;;;23.30;46.70;;;;;;474634;251;1240;-53
2022/10/30 07:25:35;;;;;;;;;;;23.30;46.80;;;;;;474652;251;1244;-53
2022/10/30 07:27:36;;;;;;;;;;;23.30;46.80;;;;;;474846;251;1225;-53
2022/10/30 07:29:38;;;;;;;;;;;23.30;46.70;;;;;;474750;251;1224;-53
2022/10/30 07:31:39;;;;;;;;;;;23.30;46.80;;;;;;475122;251;1251;-53
2022/10/30 07:33:40;;;;;;;;;;;23.30;46.80;;;;;;475000;251;1220;-52
2022/10/30 07:35:42;;;;;;;;;;;23.30;46.80;;;;;;475011;251;1202;-53
2022/10/30 07:37:43;;;;;;;;;;;23.30;46.80;;;;;;474999;251;2173;-52
2022/10/30 07:39:44;;;;;;;;;;;23.30;46.80;;;;;;474662;251;1293;-52
2022/10/30 07:41:45;;;;;;;;;;;23.30;46.80;;;;;;474994;251;1226;-53
2022/10/30 07:43:47;;;;;;;;;;;23.30;46.80;;;;;;475113;251;1230;-53
2022/10/30 07:45:48;;;;;;;;;;;23.30;46.80;;;;;;474758;251;1284;-53
2022/10/30 07:47:49;;;;;;;;;;;23.30;46.80;;;;;;474757;251;1272;-53
2022/10/30 07:49:51;;;;;;;;;;;23.30;46.80;;;;;;474660;251;1404;-53
2022/10/30 07:51:52;;;;;;;;;;;23.30;46.90;;;;;;474809;251;1346;-53
2022/10/30 07:53:54;;;;;;;;;;;23.30;46.80;;;;;;475068;251;1427;-53
2022/10/30 07:55:55;;;;;;;;;;;23.30;46.90;;;;;;475057;251;1280;-53
2022/10/30 07:57:56;;;;;;;;;;;23.30;46.90;;;;;;474947;251;2138;-53
2022/10/30 07:59:58;;;;;;;;;;;23.30;46.80;;;;;;474637;251;1212;-53
2022/10/30 08:02:00;;;;;;;;;;;23.30;46.80;;;;;;475086;251;1256;-53
2022/10/30 08:04:01;;;;;;;;;;;23.30;46.90;;;;;;475061;251;1262;-53
2022/10/30 08:06:02;;;;;;;;;;;23.30;46.90;;;;;;474689;251;1220;-53
2022/10/30 08:08:04;;;;;;;;;;;23.30;46.80;;;;;;474696;251;1364;-53
2022/10/30 08:10:05;;;;;;;;;;;23.30;46.80;;;;;;474753;251;1273;-53
2022/10/30 08:12:06;;;;;;;;;;;23.30;46.80;;;;;;474992;251;1276;-52
2022/10/30 08:14:08;;;;;;;;;;;23.20;46.90;;;;;;474823;251;1188;-52
2022/10/30 08:16:09;;;;;;;;;;;23.20;46.90;;;;;;474738;251;1254;-53
2022/10/30 08:18:10;;;;;;;;;;;23.30;46.90;;;;;;474856;251;2161;-53
2022/10/30 08:20:11;;;;;;;;;;;23.30;46.80;;;;;;475071;251;1286;-53
2022/10/30 08:22:13;;;;;;;;;;;23.20;46.80;;;;;;474682;251;1299;-53
2022/10/30 08:24:14;;;;;;;;;;;23.30;46.90;;;;;;474906;251;1223;-53
2022/10/30 08:26:15;;;;;;;;;;;23.30;46.90;;;;;;475079;251;1202;-52
2022/10/30 08:28:17;;;;;;;;;;;23.30;46.80;;;;;;474696;251;1253;-53
2022/10/30 08:30:18;;;;;;;;;;;23.30;46.80;;;;;;474823;251;1296;-53
2022/10/30 08:32:19;;;;;;;;;;;23.30;46.80;;;;;;475120;251;1250;-53
2022/10/30 08:34:21;;;;;;;;;;;23.30;46.90;;;;;;474686;251;1396;-53
2022/10/30 08:36:22;;;;;;;;;;;23.20;46.90;;;;;;475097;251;1331;-53
2022/10/30 08:38:23;;;;;;;;;;;23.30;46.90;;;;;;474694;251;2121;-53
2022/10/30 08:40:25;;;;;;;;;;;23.30;46.90;;;;;;474913;251;1298;-53
2022/10/30 08:42:26;;;;;;;;;;;23.20;46.80;;;;;;474659;251;1673;-53
2022/10/30 08:44:27;;;;;;;;;;;23.20;47.00;;;;;;474632;251;1317;-53
2022/10/30 08:46:29;;;;;;;;;;;23.20;47.00;;;;;;474701;251;1302;-53
2022/10/30 08:48:30;;;;;;;;;;;23.20;46.90;;;;;;474895;251;1233;-53
2022/10/30 08:50:31;;;;;;;;;;;23.30;47.00;;;;;;474641;251;1298;-53
2022/10/30 08:52:33;;;;;;;;;;;23.30;47.00;;;;;;474582;251;1249;-53
2022/10/30 08:54:34;;;;;;;;;;;23.30;46.90;;;;;;474755;251;1191;-53
2022/10/30 08:56:35;;;;;;;;;;;23.30;46.90;;;;;;474894;251;2209;-53
2022/10/30 08:58:37;;;;;;;;;;;23.30;46.90;;;;;;474752;251;1253;-53
2022/10/30 09:00:38;;;;;;;;;;;23.30;46.90;;;;;;474942;251;1257;-53
2022/10/30 09:02:39;;;;;;;;;;;23.30;46.90;;;;;;474755;251;1226;-53
2022/10/30 09:04:41;;;;;;;;;;;23.20;46.90;;;;;;474783;251;1179;-53
2022/10/30 09:06:42;;;;;;;;;;;23.30;46.90;;;;;;474925;251;1328;-52
2022/10/30 09:08:43;;;;;;;;;;;23.30;46.90;;;;;;474670;251;1397;-53
2022/10/30 09:10:45;;;;;;;;;;;23.30;47.00;;;;;;475110;251;1355;-53
2022/10/30 09:12:46;;;;;;;;;;;23.30;46.90;;;;;;474898;251;1170;-52
2022/10/30 09:14:47;;;;;;;;;;;23.30;46.90;;;;;;475105;251;1186;-53
2022/10/30 09:16:49;;;;;;;;;;;23.30;46.90;;;;;;474788;251;2258;-53
2022/10/30 09:18:50;;;;;;;;;;;23.20;46.90;;;;;;474800;251;1100;-53
2022/10/30 09:20:51;;;;;;;;;;;23.30;47.00;;;;;;475137;251;1080;-53
2022/10/30 09:22:53;;;;;;;;;;;23.30;46.90;;;;;;474684;251;1142;-53
2022/10/30 09:24:54;;;;;;;;;;;23.30;46.80;;;;;;474701;251;1103;-53
2022/10/30 09:26:55;;;;;;;;;;;23.30;46.90;;;;;;474973;251;1101;-52
2022/10/30 09:28:57;;;;;;;;;;;23.30;46.90;;;;;;474685;251;1183;-53
2022/10/30 09:30:58;;;;;;;;;;;23.20;47.00;;;;;;474836;251;1177;-53
2022/10/30 09:33:00;;;;;;;;;;;23.30;47.00;;;;;;475049;251;1129;-53
2022/10/30 09:35:01;;;;;;;;;;;23.30;47.00;;;;;;475065;251;2704;-53
2022/10/30 09:37:02;;;;;;;;;;;23.30;47.00;;;;;;475077;251;2165;-53
2022/10/30 09:39:03;;;;;;;;;;;23.30;46.90;;;;;;474672;251;1211;-53
2022/10/30 09:41:04;;;;;;;;;;;23.30;46.90;;;;;;474866;251;1310;-53
2022/10/30 09:43:06;;;;;;;;;;;23.30;46.90;;;;;;474601;251;1353;-53
2022/10/30 09:45:07;;;;;;;;;;;23.30;46.90;;;;;;474686;251;1383;-53
2022/10/30 09:47:08;;;;;;;;;;;23.30;46.90;;;;;;474682;251;1275;-53
2022/10/30 09:49:10;;;;;;;;;;;23.30;46.90;;;;;;474835;251;1398;-53
2022/10/30 09:51:11;;;;;;;;;;;23.30;46.90;;;;;;474553;251;1665;-52
2022/10/30 09:53:12;;;;;;;;;;;23.30;46.90;;;;;;474589;251;1356;-53
2022/10/30 09:55:14;;;;;;;;;;;23.30;47.00;;;;;;474579;251;1273;-53
2022/10/30 09:57:15;;;;;;;;;;;23.30;46.90;;;;;;474430;251;2201;-52
2022/10/30 09:59:16;;;;;;;;;;;23.30;46.90;;;;;;474880;251;1287;-53
2022/10/30 10:01:18;;;;;;;;;;;23.30;46.90;;;;;;474467;251;1250;-53
2022/10/30 10:03:19;;;;;;;;;;;23.30;47.00;;;;;;474841;251;1630;-53
2022/10/30 10:05:20;;;;;;;;;;;23.30;47.00;;;;;;474658;251;1296;-52
2022/10/30 10:07:22;;;;;;;;;;;23.30;47.00;;;;;;474502;251;1569;-53
2022/10/30 10:09:23;;;;;;;;;;;23.30;46.90;;;;;;475067;251;1322;-53
2022/10/30 10:11:24;;;;;;;;;;;23.30;46.90;;;;;;474633;251;1322;-53
2022/10/30 10:13:26;;;;;;;;;;;23.30;46.90;;;;;;474849;251;1344;-53
2022/10/30 10:15:27;;;;;;;;;;;23.30;46.90;;;;;;474889;251;1321;-53
2022/10/30 10:17:28;;;;;;;;;;;23.30;47.00;;;;;;474724;251;2166;-53
2022/10/30 10:19:29;;;;;;;;;;;23.30;47.00;;;;;;474622;251;1295;-53
2022/10/30 10:21:31;;;;;;;;;;;23.30;47.00;;;;;;474924;251;1352;-53
2022/10/30 10:23:32;;;;;;;;;;;23.30;47.00;;;;;;474984;251;1384;-53
2022/10/30 10:25:33;;;;;;;;;;;23.30;47.00;;;;;;474775;251;1176;-53
2022/10/30 10:27:35;;;;;;;;;;;23.30;47.00;;;;;;474660;251;1214;-53
2022/10/30 10:29:36;;;;;;;;;;;23.20;47.20;;;;;;474654;251;1255;-53
2022/10/30 10:31:37;;;;;;;;;;;23.20;47.20;;;;;;474682;251;1312;-53
2022/10/30 10:33:39;;;;;;;;;;;23.20;47.10;;;;;;475086;251;1321;-53
2022/10/30 10:35:40;;;;;;;;;;;23.20;47.00;;;;;;474984;251;1213;-53
2022/10/30 10:37:41;;;;;;;;;;;23.10;46.90;;;;;;474978;251;2208;-52
2022/10/30 10:39:43;;;;;;;;;;;23.10;46.80;;;;;;475082;251;1265;-53
2022/10/30 10:41:44;;;;;;;;;;;23.10;46.80;;;;;;474950;251;1248;-53
2022/10/30 10:43:45;;;;;;;;;;;23.20;46.70;;;;;;475112;251;1241;-53
2022/10/30 10:45:47;;;;;;;;;;;23.20;46.60;;;;;;475069;251;1230;-53
2022/10/30 10:47:48;;;;;;;;;;;23.20;46.60;;;;;;474735;251;1243;-53
2022/10/30 10:49:49;;;;;;;;;;;23.20;46.50;;;;;;474985;251;1296;-53
2022/10/30 10:51:51;;;;;;;;;;;23.10;46.40;;;;;;474986;251;1354;-53
2022/10/30 10:53:52;;;;;;;;;;;23.10;46.40;;;;;;474748;251;1231;-52
2022/10/30 10:55:53;;;;;;;;;;;23.10;46.40;;;;;;475054;251;1210;-53
2022/10/30 10:57:55;;;;;;;;;;;23.10;46.30;;;;;;474725;251;2173;-53
2022/10/30 10:59:56;;;;;;;;;;;23.20;46.30;;;;;;474954;251;1301;-53
2022/10/30 11:01:57;;;;;;;;;;;23.20;46.20;;;;;;474906;251;1273;-53
2022/10/30 11:03:59;;;;;;;;;;;23.10;46.10;;;;;;474797;251;1227;-53
2022/10/30 11:06:00;;;;;;;;;;;23.20;46.10;;;;;;474728;251;1288;-53
2022/10/30 11:08:01;;;;;;;;;;;23.10;46.00;;;;;;474975;251;1240;-53
2022/10/30 11:10:03;;;;;;;;;;;23.10;45.90;;;;;;474584;251;1435;-53
2022/10/30 11:12:04;;;;;;;;;;;23.10;45.90;;;;;;474437;251;1339;-53
2022/10/30 11:14:05;;;;;;;;;;;23.10;46.00;;;;;;474606;251;1365;-52
2022/10/30 11:16:07;;;;;;;;;;;23.10;45.90;;;;;;474441;251;1688;-52
2022/10/30 11:18:08;;;;;;;;;;;23.10;45.90;;;;;;474589;251;2200;-53
2022/10/30 11:20:09;;;;;;;;;;;23.10;45.70;;;;;;474708;251;1224;-53
2022/10/30 11:22:11;;;;;;;;;;;23.10;45.70;;;;;;474414;251;1722;-53
2022/10/30 11:24:12;;;;;;;;;;;23.10;45.60;;;;;;474906;251;1398;-53
2022/10/30 11:26:13;;;;;;;;;;;23.10;45.60;;;;;;474463;251;1711;-52
2022/10/30 11:28:15;;;;;;;;;;;23.10;45.60;;;;;;474861;251;1217;-53
2022/10/30 11:30:16;;;;;;;;;;;23.10;45.50;;;;;;474957;251;1363;-53
2022/10/30 11:32:17;;;;;;;;;;;23.10;45.50;;;;;;474945;251;1346;-53
2022/10/30 11:34:19;;;;;;;;;;;23.10;45.40;;;;;;475076;251;1220;-53
2022/10/30 11:36:20;;;;;;;;;;;23.10;45.40;;;;;;474675;251;1415;-53
2022/10/30 11:38:21;;;;;;;;;;;23.10;45.30;;;;;;475056;251;2192;-53
2022/10/30 11:40:23;;;;;;;;;;;23.10;45.30;;;;;;474732;251;1198;-53
2022/10/30 11:42:24;;;;;;;;;;;23.10;45.30;;;;;;475066;251;1220;-53
2022/10/30 11:44:25;;;;;;;;;;;23.10;45.30;;;;;;475114;251;1173;-53
2022/10/30 11:46:26;;;;;;;;;;;23.10;45.10;;;;;;474740;251;1106;-53
2022/10/30 11:48:28;;;;;;;;;;;23.10;45.20;;;;;;474690;251;1382;-53
2022/10/30 11:50:29;;;;;;;;;;;23.10;45.10;;;;;;475118;251;1209;-53
2022/10/30 11:52:30;;;;;;;;;;;23.10;45.00;;;;;;475071;251;1287;-53
2022/10/30 11:54:32;;;;;;;;;;;23.10;45.00;;;;;;474843;251;1205;-53
2022/10/30 11:56:33;;;;;;;;;;;23.10;45.00;;;;;;474755;251;1194;-53